Terminal Aerodrome Forecast
Issued by NWS Shreveport, LA

Home | Current Version | Previous Version | Text Only | Print | Product List | Glossary On
Versions: 1 2 3 4 5 6 7 8 9 10 11 12
665
FTUS44 KSHV 201728
TAFTXK
TAF
KTXK 201728Z 2018/2118 16010KT P6SM VCSH BKN250
     FM210000 15006KT P6SM SCT045 BKN080 BKN250
     FM210700 14005KT P6SM BKN015
      TEMPO 2109/2113 BKN010
     FM211500 17011G17KT P6SM BKN020=

USA.gov is the U.S. government's official web portal to all federal, state and local government web resources and services.